Time;durP1;ratioP1;P1;durP2;ratioP2;P2;SDS_P1;SDS_P2;PMS_P1;PMS_P2;Temp;Humidity;BMP_temperature;BMP_pressure;BME280_temperature;BME280_humidity;BME280_pressure;Samples;Min_cycle;Max_cycle;Signal;HPM_P1;HPM_P2
2022/10/27 00:00:34;;;;;;;6.35;3.60;;;12.40;90.80;;;;;;5069187;28;20044;-62
2022/10/27 00:03:05;;;;;;;7.57;3.55;;;12.40;90.70;;;;;;5070680;28;20144;-61
2022/10/27 00:05:33;;;;;;;9.23;3.30;;;12.40;90.80;;;;;;5071658;28;20052;-61
2022/10/27 00:08:00;;;;;;;8.07;3.88;;;12.40;90.60;;;;;;5073483;28;20131;-61
2022/10/27 00:10:27;;;;;;;6.43;3.50;;;12.40;90.50;;;;;;5073204;28;20071;-61
2022/10/27 00:12:55;;;;;;;6.43;3.50;;;12.50;90.40;;;;;;5065768;28;20056;-61
2022/10/27 00:15:22;;;;;;;8.35;3.88;;;12.40;90.50;;;;;;5066510;28;20051;-62
2022/10/27 00:17:50;;;;;;;7.32;3.45;;;12.50;90.30;;;;;;5068066;28;20048;-63
2022/10/27 00:20:17;;;;;;;7.75;3.40;;;12.50;90.20;;;;;;5065201;28;20056;-62
2022/10/27 00:22:44;;;;;;;7.13;3.40;;;12.40;90.20;;;;;;5072266;28;20132;-62
2022/10/27 00:25:11;;;;;;;7.60;2.85;;;12.40;90.30;;;;;;5062970;28;20046;-64
2022/10/27 00:27:38;;;;;;;7.43;3.30;;;12.30;90.20;;;;;;5068955;28;20048;-64
2022/10/27 00:30:05;;;;;;;6.22;2.63;;;12.30;90.30;;;;;;5065721;28;20048;-62
2022/10/27 00:32:32;;;;;;;6.90;3.60;;;12.30;90.30;;;;;;5071576;28;20147;-62
2022/10/27 00:35:00;;;;;;;4.88;2.80;;;12.30;90.20;;;;;;5071626;28;20079;-61
2022/10/27 00:37:30;;;;;;;6.10;3.10;;;12.20;90.30;;;;;;5065322;28;20084;-62
2022/10/27 00:39:57;;;;;;;6.88;2.97;;;12.20;90.40;;;;;;5055322;28;20045;-62
2022/10/27 00:42:24;;;;;;;5.93;2.83;;;12.20;90.30;;;;;;5065806;28;20483;-62
2022/10/27 00:44:51;;;;;;;8.15;3.20;;;12.20;90.40;;;;;;5062747;28;20123;-60
2022/10/27 00:47:22;;;;;;;6.07;3.53;;;12.20;90.40;;;;;;5066275;28;20483;-61
2022/10/27 00:49:54;;;;;;;7.95;3.42;;;12.30;90.40;;;;;;5070562;28;20131;-61
2022/10/27 00:52:28;;;;;;;10.10;3.53;;;12.20;90.40;;;;;;5070287;28;20036;-59
2022/10/27 00:54:57;;;;;;;6.97;3.50;;;12.20;90.40;;;;;;5066398;28;20079;-60
2022/10/27 00:57:26;;;;;;;9.70;3.77;;;12.30;90.50;;;;;;5071521;28;20048;-60
2022/10/27 00:59:53;;;;;;;5.57;2.97;;;12.30;90.40;;;;;;5067684;28;20139;-62
2022/10/27 01:02:20;;;;;;;6.95;3.13;;;12.30;90.30;;;;;;5065793;28;20501;-62
2022/10/27 01:04:52;;;;;;;7.22;3.17;;;12.30;90.30;;;;;;5071180;28;20059;-62
2022/10/27 01:07:22;;;;;;;6.82;3.10;;;12.30;90.30;;;;;;5071127;28;20248;-61
2022/10/27 01:09:49;;;;;;;5.75;3.10;;;12.20;90.30;;;;;;5071907;28;20120;-61
2022/10/27 01:12:16;;;;;;;7.18;3.30;;;12.20;90.50;;;;;;5063115;28;20045;-62
2022/10/27 01:14:44;;;;;;;5.85;3.08;;;12.10;90.60;;;;;;5067950;28;20087;-62
2022/10/27 01:17:30;;;;;;;7.47;2.95;;;12.10;90.70;;;;;;5066458;28;20143;-60
2022/10/27 01:20:28;;;;;;;5.63;2.70;;;12.10;90.70;;;;;;5065974;28;20075;-62
2022/10/27 01:23:00;;;;;;;6.47;3.03;;;12.10;90.70;;;;;;5065211;28;20048;-61
2022/10/27 01:25:58;;;;;;;7.18;3.17;;;12.10;90.60;;;;;;5067006;28;20044;-59
2022/10/27 01:28:55;;;;;;;6.10;2.45;;;12.10;90.60;;;;;;5041896;28;20049;-62
2022/10/27 01:31:27;;;;;;;5.07;2.40;;;12.10;90.50;;;;;;5060253;28;20086;-62
2022/10/27 01:34:03;;;;;;;5.13;2.42;;;12.10;90.50;;;;;;5071785;28;20464;-61
2022/10/27 01:36:36;;;;;;;4.80;2.50;;;12.10;90.40;;;;;;5064787;28;20040;-62
2022/10/27 01:39:07;;;;;;;4.40;2.55;;;12.10;90.40;;;;;;5070512;28;20048;-62
2022/10/27 01:41:39;;;;;;;5.97;2.30;;;12.10;90.40;;;;;;5068602;28;20121;-62
2022/10/27 01:44:12;;;;;;;4.00;2.20;;;12.10;90.40;;;;;;5067206;28;20438;-60
2022/10/27 01:46:42;;;;;;;5.40;2.15;;;12.10;90.30;;;;;;5063875;28;20068;-62
2022/10/27 01:49:09;;;;;;;6.10;2.33;;;12.10;90.20;;;;;;5068654;28;20062;-60
2022/10/27 01:51:36;;;;;;;6.05;3.38;;;12.10;90.30;;;;;;5072572;28;20502;-61
2022/10/27 01:54:07;;;;;;;4.75;2.42;;;12.10;90.40;;;;;;5071610;28;20119;-62
2022/10/27 01:56:53;;;;;;;5.10;2.40;;;12.00;90.40;;;;;;5074673;28;20132;-62
2022/10/27 01:59:47;;;;;;;4.78;2.47;;;12.00;90.40;;;;;;5061074;28;20139;-61
2022/10/27 02:02:27;;;;;;;4.90;2.30;;;12.10;90.30;;;;;;5067594;28;20127;-60
2022/10/27 02:05:05;;;;;;;5.13;2.03;;;12.10;90.40;;;;;;5073443;28;20052;-62
2022/10/27 02:07:40;;;;;;;5.05;2.58;;;12.10;90.40;;;;;;5072709;28;20053;-62
2022/10/27 02:10:13;;;;;;;4.88;2.50;;;12.10;90.40;;;;;;5071670;28;20044;-61
2022/10/27 02:12:41;;;;;;;4.75;2.60;;;12.10;90.40;;;;;;5070814;28;20075;-61
2022/10/27 02:15:17;;;;;;;6.68;2.40;;;12.10;90.30;;;;;;5072490;28;20057;-62
2022/10/27 02:17:47;;;;;;;6.82;2.30;;;12.10;90.40;;;;;;5071075;28;20051;-60
2022/10/27 02:20:24;;;;;;;6.03;3.22;;;12.10;90.50;;;;;;5068893;28;20078;-61
2022/10/27 02:22:54;;;;;;;5.60;2.65;;;12.00;90.50;;;;;;5072775;28;20131;-61
2022/10/27 02:25:26;;;;;;;5.90;2.72;;;12.00;90.60;;;;;;5072188;28;20094;-61
2022/10/27 02:27:57;;;;;;;5.35;2.55;;;12.00;90.60;;;;;;5064422;28;20057;-60
2022/10/27 02:30:24;;;;;;;5.70;2.90;;;11.90;90.60;;;;;;5065922;28;20060;-60
2022/10/27 02:32:53;;;;;;;6.10;2.58;;;11.90;90.60;;;;;;5074323;28;20052;-60
2022/10/27 02:35:20;;;;;;;6.85;2.95;;;11.90;90.60;;;;;;5073329;28;20307;-62
2022/10/27 02:37:47;;;;;;;5.55;2.88;;;11.90;90.60;;;;;;5067861;28;20044;-62
2022/10/27 02:40:14;;;;;;;5.85;2.80;;;11.90;90.60;;;;;;5063680;28;20127;-60
2022/10/27 02:42:42;;;;;;;4.68;2.60;;;11.90;90.50;;;;;;5068865;28;20167;-62
2022/10/27 02:45:09;;;;;;;5.93;2.50;;;11.90;90.50;;;;;;5073357;28;20072;-61
2022/10/27 02:47:37;;;;;;;5.43;2.35;;;11.90;90.50;;;;;;5062088;28;20045;-60
2022/10/27 02:50:06;;;;;;;6.15;2.72;;;11.90;90.40;;;;;;5073593;28;20051;-62
2022/10/27 02:52:35;;;;;;;5.07;2.67;;;12.00;90.40;;;;;;5071019;28;20032;-61
2022/10/27 02:55:02;;;;;;;4.10;2.22;;;11.90;90.40;;;;;;5071780;28;20052;-61
2022/10/27 02:57:29;;;;;;;5.15;2.58;;;11.90;90.30;;;;;;5064298;28;20055;-61
2022/10/27 02:59:56;;;;;;;5.65;2.35;;;11.80;90.40;;;;;;5071237;28;20061;-61
2022/10/27 03:02:23;;;;;;;4.82;2.50;;;11.80;90.40;;;;;;5065949;28;20076;-61
2022/10/27 03:04:50;;;;;;;4.53;2.00;;;11.80;90.40;;;;;;5069847;28;20410;-61
2022/10/27 03:07:19;;;;;;;4.05;2.10;;;11.80;90.30;;;;;;5068184;28;20044;-62
2022/10/27 03:09:46;;;;;;;4.05;2.53;;;11.80;90.30;;;;;;5069472;28;20088;-61
2022/10/27 03:12:13;;;;;;;3.42;2.10;;;11.70;90.30;;;;;;5072028;28;20044;-61
2022/10/27 03:14:40;;;;;;;4.43;2.40;;;11.70;90.30;;;;;;5064737;28;20044;-61
2022/10/27 03:17:07;;;;;;;4.18;2.13;;;11.70;90.20;;;;;;5068649;28;20049;-62
2022/10/27 03:19:34;;;;;;;4.60;2.20;;;11.70;90.20;;;;;;5067649;28;20048;-61
2022/10/27 03:22:01;;;;;;;6.00;2.25;;;11.70;90.20;;;;;;5078548;28;20051;-62
2022/10/27 03:24:29;;;;;;;3.33;1.85;;;11.70;90.20;;;;;;5067433;28;20512;-62
2022/10/27 03:26:56;;;;;;;4.30;2.15;;;11.70;90.20;;;;;;5066962;28;20042;-60
2022/10/27 03:29:24;;;;;;;5.18;2.15;;;11.70;90.20;;;;;;5073407;28;20044;-60
2022/10/27 03:31:51;;;;;;;3.92;2.13;;;11.70;90.20;;;;;;5071949;28;20048;-61
2022/10/27 03:34:18;;;;;;;5.50;2.00;;;11.70;90.20;;;;;;5069593;28;20071;-60
2022/10/27 03:36:45;;;;;;;4.75;2.03;;;11.70;90.10;;;;;;5071156;28;20036;-61
2022/10/27 03:39:12;;;;;;;6.05;2.10;;;11.60;90.10;;;;;;5073902;28;20114;-61
2022/10/27 03:41:40;;;;;;;4.03;1.95;;;11.70;90.10;;;;;;5068291;28;20077;-60
2022/10/27 03:44:07;;;;;;;3.83;2.00;;;11.60;90.10;;;;;;5068165;28;20115;-59
2022/10/27 03:46:34;;;;;;;5.30;2.22;;;11.70;90.10;;;;;;5064921;28;20137;-61
2022/10/27 03:49:01;;;;;;;4.20;2.10;;;11.70;89.90;;;;;;5070428;28;20071;-62
2022/10/27 03:51:28;;;;;;;5.63;2.17;;;11.70;90.10;;;;;;5063910;28;20045;-63
2022/10/27 03:53:56;;;;;;;4.63;2.33;;;11.60;90.10;;;;;;5068921;28;20044;-62
2022/10/27 03:56:23;;;;;;;5.10;2.58;;;11.70;90.10;;;;;;5068881;28;20461;-61
2022/10/27 03:58:52;;;;;;;5.35;2.30;;;11.70;90.10;;;;;;5070200;28;20045;-61
2022/10/27 04:01:19;;;;;;;5.60;2.47;;;11.70;90.10;;;;;;5069333;28;20059;-61
2022/10/27 04:03:48;;;;;;;5.57;2.40;;;11.70;90.00;;;;;;5063763;28;20037;-62
2022/10/27 04:06:15;;;;;;;5.95;2.38;;;11.70;90.10;;;;;;5065743;28;20394;-61
2022/10/27 04:08:42;;;;;;;6.22;2.40;;;11.60;90.20;;;;;;5066713;28;20467;-60
2022/10/27 04:11:09;;;;;;;5.00;2.72;;;11.60;90.20;;;;;;5070466;28;20487;-62
2022/10/27 04:13:36;;;;;;;5.68;3.08;;;11.60;90.20;;;;;;5062717;28;20487;-61
2022/10/27 04:16:04;;;;;;;6.78;3.15;;;11.70;90.00;;;;;;5070828;28;20410;-61
2022/10/27 04:18:31;;;;;;;6.15;2.60;;;11.70;89.90;;;;;;5065091;28;20816;-61
2022/10/27 04:21:01;;;;;;;4.88;2.60;;;11.70;89.80;;;;;;5071285;28;20070;-61
2022/10/27 04:23:28;;;;;;;7.72;3.20;;;11.70;89.90;;;;;;5067225;28;20107;-61
2022/10/27 04:25:55;;;;;;;5.55;2.53;;;11.60;89.90;;;;;;5071496;28;20049;-60
2022/10/27 04:28:22;;;;;;;5.45;3.00;;;11.70;89.70;;;;;;5063847;28;20524;-61
2022/10/27 04:30:49;;;;;;;6.40;3.08;;;11.70;89.70;;;;;;5071572;28;20410;-59
2022/10/27 04:33:18;;;;;;;6.10;3.03;;;11.60;89.70;;;;;;5068636;28;20044;-62
2022/10/27 04:35:45;;;;;;;6.88;3.08;;;11.60;89.80;;;;;;5067707;28;20128;-60
2022/10/27 04:38:12;;;;;;;5.97;2.67;;;11.60;89.60;;;;;;5065472;28;20076;-61
2022/10/27 04:40:39;;;;;;;5.28;2.55;;;11.60;89.70;;;;;;5070367;28;20065;-61
2022/10/27 04:43:06;;;;;;;5.88;2.75;;;11.60;89.70;;;;;;5068901;28;20048;-60
2022/10/27 04:45:33;;;;;;;5.68;2.65;;;11.60;89.80;;;;;;5070374;28;20037;-60
2022/10/27 04:48:00;;;;;;;3.88;2.03;;;11.60;89.70;;;;;;5066295;28;20045;-60
2022/10/27 04:50:28;;;;;;;4.53;2.50;;;11.60;89.70;;;;;;5072745;28;20072;-61
2022/10/27 04:52:57;;;;;;;3.75;1.88;;;11.50;89.70;;;;;;5068475;28;20544;-60
2022/10/27 04:55:24;;;;;;;4.30;2.03;;;11.40;89.60;;;;;;5064529;28;20068;-60
2022/10/27 04:57:51;;;;;;;4.13;2.10;;;11.40;89.80;;;;;;5065992;28;20105;-60
2022/10/27 05:00:18;;;;;;;3.95;2.08;;;11.30;89.80;;;;;;5069920;28;20047;-59
2022/10/27 05:02:45;;;;;;;4.90;2.47;;;11.40;89.90;;;;;;5063907;28;20067;-60
2022/10/27 05:05:12;;;;;;;4.10;2.00;;;11.40;89.80;;;;;;5072282;28;20045;-59
2022/10/27 05:07:41;;;;;;;5.80;2.20;;;11.40;89.80;;;;;;5064484;28;20051;-60
2022/10/27 05:10:09;;;;;;;4.68;2.25;;;11.40;89.80;;;;;;5067043;28;20472;-60
2022/10/27 05:12:36;;;;;;;5.72;2.10;;;11.40;89.70;;;;;;5066977;28;20056;-60
2022/10/27 05:15:03;;;;;;;8.25;2.75;;;11.40;89.70;;;;;;5068940;28;20056;-60
2022/10/27 05:17:30;;;;;;;3.30;2.03;;;11.40;89.80;;;;;;5070679;28;20032;-60
2022/10/27 05:19:57;;;;;;;6.53;2.53;;;11.30;89.80;;;;;;5062992;28;20072;-60
2022/10/27 05:22:23;;;;;;;5.57;2.17;;;11.30;89.90;;;;;;5063009;28;20040;-60
2022/10/27 05:24:52;;;;;;;5.22;2.40;;;11.30;89.90;;;;;;5057992;28;20453;-60
2022/10/27 05:27:19;;;;;;;3.75;2.08;;;11.30;89.80;;;;;;5073827;28;20052;-61
2022/10/27 05:29:45;;;;;;;5.43;2.30;;;11.20;89.80;;;;;;5065526;28;20454;-62
2022/10/27 05:32:12;;;;;;;4.78;1.92;;;11.20;89.80;;;;;;5066823;28;20222;-60
2022/10/27 05:34:40;;;;;;;4.15;2.03;;;11.20;89.80;;;;;;5069987;28;20100;-61
2022/10/27 05:37:07;;;;;;;3.70;1.98;;;11.10;89.70;;;;;;5055865;28;20037;-60
2022/10/27 05:39:34;;;;;;;4.30;1.65;;;11.10;89.70;;;;;;5065341;28;20508;-59
2022/10/27 05:42:02;;;;;;;3.38;1.60;;;11.10;89.80;;;;;;5074616;28;20040;-61
2022/10/27 05:44:29;;;;;;;3.70;1.50;;;11.00;89.80;;;;;;5080801;28;20452;-61
2022/10/27 05:46:56;;;;;;;5.05;1.73;;;11.10;89.80;;;;;;5065240;28;20048;-61
2022/10/27 05:49:23;;;;;;;5.03;2.00;;;11.10;89.70;;;;;;5068171;28;20054;-62
2022/10/27 05:51:50;;;;;;;4.38;2.50;;;11.10;89.70;;;;;;5068272;28;20036;-61
2022/10/27 05:54:17;;;;;;;4.45;2.60;;;11.10;89.50;;;;;;5073810;28;20127;-62
2022/10/27 05:56:46;;;;;;;6.28;2.50;;;11.10;89.60;;;;;;5073335;28;20052;-61
2022/10/27 05:59:14;;;;;;;3.70;2.20;;;11.10;89.70;;;;;;5072806;28;20525;-61
2022/10/27 06:01:41;;;;;;;2.67;1.80;;;11.10;89.60;;;;;;5064076;28;20045;-61
2022/10/27 06:04:08;;;;;;;4.07;1.80;;;11.10;89.60;;;;;;5062516;28;20504;-61
2022/10/27 06:06:35;;;;;;;3.33;1.48;;;11.10;89.60;;;;;;5072878;28;20072;-62
2022/10/27 06:09:02;;;;;;;3.00;1.58;;;11.10;89.60;;;;;;5074068;28;20044;-61
2022/10/27 06:11:30;;;;;;;2.58;1.40;;;11.10;89.60;;;;;;5073732;28;20064;-60
2022/10/27 06:13:57;;;;;;;3.83;1.67;;;11.10;89.60;;;;;;5064629;28;20036;-62
2022/10/27 06:16:25;;;;;;;4.18;1.73;;;11.20;89.70;;;;;;5072659;28;20502;-61
2022/10/27 06:18:53;;;;;;;3.65;1.75;;;11.20;89.70;;;;;;5064396;28;20049;-61
2022/10/27 06:21:20;;;;;;;6.40;2.00;;;11.20;89.80;;;;;;5064703;28;20060;-61
2022/10/27 06:23:48;;;;;;;6.80;2.53;;;11.20;89.80;;;;;;5072226;28;20052;-61
2022/10/27 06:26:15;;;;;;;6.32;2.78;;;11.20;89.90;;;;;;5059944;28;20069;-62
2022/10/27 06:28:42;;;;;;;8.27;2.25;;;11.20;89.80;;;;;;5068849;28;20083;-59
2022/10/27 06:31:09;;;;;;;5.82;2.58;;;11.20;89.90;;;;;;5067396;28;20049;-62
2022/10/27 06:33:37;;;;;;;5.40;2.33;;;11.20;89.80;;;;;;5069653;28;20045;-61
2022/10/27 06:36:05;;;;;;;6.57;2.67;;;11.20;89.60;;;;;;5069266;28;20379;-60
2022/10/27 06:38:32;;;;;;;6.72;2.42;;;11.20;89.60;;;;;;5064637;28;20036;-61
2022/10/27 06:40:59;;;;;;;5.05;2.60;;;11.20;89.60;;;;;;5065456;28;20136;-61
2022/10/27 06:43:26;;;;;;;5.63;2.63;;;11.20;89.50;;;;;;5072183;28;20486;-60
2022/10/27 06:45:53;;;;;;;8.05;3.17;;;11.10;89.60;;;;;;5069963;28;20036;-61
2022/10/27 06:48:21;;;;;;;5.40;2.65;;;11.10;89.60;;;;;;5062040;28;20134;-61
2022/10/27 06:50:49;;;;;;;6.45;2.58;;;11.10;89.70;;;;;;5070143;28;20055;-61
2022/10/27 06:53:19;;;;;;;5.68;2.58;;;11.20;89.60;;;;;;5058639;28;20087;-60
2022/10/27 06:55:46;;;;;;;8.43;3.00;;;11.20;89.60;;;;;;5064373;28;20048;-61
2022/10/27 06:58:13;;;;;;;7.45;2.75;;;11.30;89.60;;;;;;5069214;28;20040;-61
2022/10/27 07:00:42;;;;;;;6.93;2.53;;;11.30;89.80;;;;;;5062512;28;20518;-61
2022/10/27 07:03:10;;;;;;;5.25;2.58;;;11.40;89.80;;;;;;5078674;28;20036;-62
2022/10/27 07:05:37;;;;;;;7.03;3.05;;;11.30;89.90;;;;;;5067602;28;20103;-62
2022/10/27 07:08:06;;;;;;;6.32;3.00;;;11.40;90.00;;;;;;5061723;28;20446;-62
2022/10/27 07:10:33;;;;;;;7.55;3.50;;;11.40;90.20;;;;;;5072121;28;20059;-61
2022/10/27 07:13:01;;;;;;;6.50;3.10;;;11.40;90.10;;;;;;5062129;28;20147;-61
2022/10/27 07:15:31;;;;;;;6.82;2.70;;;11.50;90.20;;;;;;5057841;28;20045;-60
2022/10/27 07:18:00;;;;;;;5.82;3.00;;;11.50;90.30;;;;;;5073058;28;20044;-63
2022/10/27 07:20:29;;;;;;;6.25;3.10;;;11.50;90.10;;;;;;5065283;28;20048;-61
2022/10/27 07:22:56;;;;;;;6.78;2.78;;;11.60;90.20;;;;;;5060508;28;20140;-61
2022/10/27 07:25:24;;;;;;;5.65;2.60;;;11.60;90.40;;;;;;5060262;28;20041;-61
2022/10/27 07:27:53;;;;;;;5.75;3.00;;;11.60;90.10;;;;;;5072286;28;20103;-61
2022/10/27 07:30:21;;;;;;;5.93;2.63;;;11.60;90.40;;;;;;5061005;28;20053;-61
2022/10/27 07:32:49;;;;;;;4.95;2.72;;;11.60;90.20;;;;;;5062877;28;20087;-61
2022/10/27 07:35:16;;;;;;;5.15;2.85;;;11.60;90.70;;;;;;5061859;28;20045;-61
2022/10/27 07:37:44;;;;;;;6.28;2.78;;;11.60;90.30;;;;;;5070920;28;20044;-61
2022/10/27 07:40:12;;;;;;;4.97;2.60;;;11.60;90.60;;;;;;5059709;28;20407;-61
2022/10/27 07:42:48;;;;;;;5.05;2.20;;;11.60;90.50;;;;;;5063961;28;20083;-60
2022/10/27 07:45:17;;;;;;;5.93;2.58;;;11.60;90.20;;;;;;5058513;28;20045;-61
2022/10/27 07:47:44;;;;;;;5.13;2.40;;;11.60;90.80;;;;;;5067493;28;20471;-59
2022/10/27 07:50:12;;;;;;;5.55;2.40;;;11.60;90.50;;;;;;5064516;28;20052;-61
2022/10/27 07:52:42;;;;;;;5.15;2.47;;;11.70;90.40;;;;;;5061470;28;20047;-62
2022/10/27 07:55:10;;;;;;;5.55;2.60;;;11.70;90.50;;;;;;5058385;28;20053;-61
2022/10/27 07:57:38;;;;;;;5.13;2.65;;;11.80;90.30;;;;;;5067252;28;20041;-61
2022/10/27 08:00:11;;;;;;;5.70;2.83;;;11.80;90.90;;;;;;5068397;28;20058;-60
2022/10/27 08:02:41;;;;;;;6.50;2.60;;;11.80;90.50;;;;;;5064270;28;20049;-61
2022/10/27 08:05:09;;;;;;;6.97;3.17;;;11.70;90.80;;;;;;5071106;28;20102;-61
2022/10/27 08:07:37;;;;;;;6.35;2.95;;;11.80;91.10;;;;;;5071214;28;20045;-61
2022/10/27 08:10:05;;;;;;;7.60;3.45;;;11.80;90.80;;;;;;5068202;28;20056;-62
2022/10/27 08:12:32;;;;;;;6.65;3.35;;;11.80;90.80;;;;;;5061409;28;20051;-61
2022/10/27 08:14:58;;;;;;;5.28;3.08;;;11.80;90.80;;;;;;5066531;28;20396;-61
2022/10/27 08:17:28;;;;;;;6.32;3.00;;;11.80;90.50;;;;;;5068996;28;20052;-60
2022/10/27 08:19:55;;;;;;;6.13;3.00;;;11.80;90.50;;;;;;5071141;28;20076;-63
2022/10/27 08:22:22;;;;;;;6.68;3.45;;;11.90;90.80;;;;;;5062310;28;20124;-62
2022/10/27 08:24:49;;;;;;;6.72;3.13;;;11.90;91.00;;;;;;5066108;28;20119;-60
2022/10/27 08:27:16;;;;;;;6.75;3.40;;;11.90;91.20;;;;;;5070946;28;20393;-62
2022/10/27 08:29:44;;;;;;;6.63;3.30;;;12.00;91.60;;;;;;5062458;28;20048;-62
2022/10/27 08:32:11;;;;;;;8.18;2.83;;;12.10;92.10;;;;;;5064395;28;20053;-61
2022/10/27 08:34:39;;;;;;;5.22;3.00;;;12.20;92.30;;;;;;5062239;28;20041;-61
2022/10/27 08:37:06;;;;;;;5.75;2.60;;;12.20;92.50;;;;;;5059773;28;20380;-62
2022/10/27 08:39:33;;;;;;;4.57;2.60;;;12.20;92.50;;;;;;5068755;28;20061;-61
2022/10/27 08:42:05;;;;;;;4.85;2.50;;;12.30;92.80;;;;;;5068267;28;20064;-60
2022/10/27 08:44:38;;;;;;;6.05;2.83;;;12.40;93.10;;;;;;5068503;28;20494;-61
2022/10/27 08:47:19;;;;;;;5.50;2.28;;;12.40;92.90;;;;;;5069948;28;20041;-60
2022/10/27 08:49:51;;;;;;;4.00;2.10;;;12.50;93.10;;;;;;5065074;28;20056;-59
2022/10/27 08:52:26;;;;;;;6.47;2.90;;;12.60;93.00;;;;;;5066021;28;20406;-61
2022/10/27 08:54:59;;;;;;;5.38;2.35;;;12.60;92.90;;;;;;5071579;28;20044;-61
2022/10/27 08:57:28;;;;;;;4.20;2.08;;;12.70;92.90;;;;;;5069424;28;20048;-61
2022/10/27 08:59:56;;;;;;;3.83;1.90;;;12.70;93.10;;;;;;5074168;28;20056;-61
2022/10/27 09:02:46;;;;;;;4.68;2.30;;;12.80;93.20;;;;;;5071289;28;20655;-61
2022/10/27 09:05:32;;;;;;;5.03;2.47;;;12.90;93.30;;;;;;5076432;28;20075;-60
2022/10/27 09:08:06;;;;;;;6.43;2.25;;;13.00;93.30;;;;;;5071472;28;20055;-61
2022/10/27 09:10:42;;;;;;;3.80;1.90;;;13.10;93.40;;;;;;5071409;28;20048;-61
2022/10/27 09:13:21;;;;;;;6.00;2.40;;;13.20;93.20;;;;;;5075345;28;20156;-60
2022/10/27 09:15:51;;;;;;;4.38;2.30;;;13.30;93.30;;;;;;5075307;28;20082;-60
2022/10/27 09:18:24;;;;;;;5.30;2.40;;;13.40;93.10;;;;;;5073128;28;20550;-62
2022/10/27 09:20:54;;;;;;;5.68;2.25;;;13.50;93.00;;;;;;5067986;28;20087;-61
2022/10/27 09:23:28;;;;;;;6.13;2.50;;;13.60;93.00;;;;;;5071914;28;20040;-60
2022/10/27 09:25:58;;;;;;;4.35;2.30;;;13.70;92.70;;;;;;5069691;28;20074;-60
2022/10/27 09:28:31;;;;;;;6.43;2.78;;;13.70;92.60;;;;;;5084826;28;20044;-60
2022/10/27 09:30:59;;;;;;;5.38;2.45;;;13.80;92.50;;;;;;5065712;28;20053;-61
2022/10/27 09:33:30;;;;;;;4.55;2.25;;;13.90;92.20;;;;;;5074218;28;20064;-62
2022/10/27 09:35:59;;;;;;;4.78;2.50;;;14.00;92.00;;;;;;5074210;28;20090;-61
2022/10/27 09:38:27;;;;;;;4.05;2.00;;;14.10;91.90;;;;;;5068919;28;20052;-63
2022/10/27 09:40:55;;;;;;;5.07;1.98;;;14.10;91.60;;;;;;5075038;28;20072;-60
2022/10/27 09:43:23;;;;;;;4.82;2.00;;;14.20;91.40;;;;;;5068329;28;20534;-62
2022/10/27 09:45:59;;;;;;;4.03;2.03;;;14.30;90.90;;;;;;5070212;28;20045;-61
2022/10/27 09:48:28;;;;;;;4.53;1.85;;;14.40;90.90;;;;;;5063561;28;20135;-61
2022/10/27 09:51:01;;;;;;;4.45;1.70;;;14.50;90.70;;;;;;5062123;28;20041;-62
2022/10/27 09:53:43;;;;;;;4.25;1.83;;;14.50;90.50;;;;;;5069205;28;20046;-60
2022/10/27 09:56:13;;;;;;;5.20;1.63;;;14.60;90.30;;;;;;5064331;28;20041;-61
2022/10/27 09:58:55;;;;;;;3.17;1.40;;;14.60;90.10;;;;;;5070621;28;20351;-62
2022/10/27 10:01:23;;;;;;;3.83;1.55;;;14.60;90.20;;;;;;5069156;28;20036;-61
2022/10/27 10:04:04;;;;;;;4.40;1.80;;;14.70;89.80;;;;;;5069120;28;20479;-61
2022/10/27 10:06:36;;;;;;;2.67;1.65;;;14.70;90.10;;;;;;5069724;28;20483;-61
2022/10/27 10:09:22;;;;;;;3.65;1.65;;;14.80;89.70;;;;;;5067174;28;20055;-61
2022/10/27 10:11:49;;;;;;;3.78;1.58;;;14.90;89.60;;;;;;5070502;28;20129;-61
2022/10/27 10:14:25;;;;;;;3.88;1.85;;;14.90;89.30;;;;;;5062823;28;20488;-60
2022/10/27 10:16:54;;;;;;;4.43;2.10;;;15.00;89.70;;;;;;5072577;28;20041;-60
2022/10/27 10:19:24;;;;;;;5.50;1.45;;;15.00;89.00;;;;;;5071369;28;20474;-61
2022/10/27 10:21:54;;;;;;;3.45;1.70;;;15.10;88.90;;;;;;5067200;28;20045;-61
2022/10/27 10:24:24;;;;;;;3.83;1.70;;;15.10;88.80;;;;;;5071867;28;20128;-60
2022/10/27 10:26:52;;;;;;;;;;;15.20;88.90;;;;;;5071141;28;20040;-61
2022/10/27 10:29:27;;;;;;;3.63;1.52;;;15.20;88.90;;;;;;5069841;28;19962;-61
2022/10/27 10:32:11;;;;;;;4.00;1.63;;;15.30;88.90;;;;;;5072359;28;20105;-61
2022/10/27 10:34:39;;;;;;;3.42;1.45;;;15.30;88.50;;;;;;5083251;28;20053;-60
2022/10/27 10:37:30;;;;;;;3.28;1.70;;;15.30;88.50;;;;;;5071340;28;20106;-61
2022/10/27 10:40:27;;;;;;;3.65;1.75;;;15.40;88.70;;;;;;5060439;28;20154;-62
2022/10/27 10:43:17;;;;;;;3.97;1.80;;;15.40;88.70;;;;;;5064128;28;20045;-61
2022/10/27 10:45:51;;;;;;;3.78;1.75;;;15.50;88.60;;;;;;5071202;28;20041;-61
2022/10/27 10:48:28;;;;;;;3.60;1.60;;;15.50;88.60;;;;;;5067190;28;20135;-61
2022/10/27 10:50:55;;;;;;;4.85;2.30;;;15.50;88.50;;;;;;5072795;28;20053;-60
2022/10/27 10:53:29;;;;;;;5.40;1.88;;;15.60;88.50;;;;;;5070128;28;20065;-61
2022/10/27 10:56:00;;;;;;;4.07;1.83;;;15.70;88.50;;;;;;5062631;28;20078;-61
2022/10/27 10:58:33;;;;;;;4.03;1.92;;;15.70;88.30;;;;;;5072153;28;20047;-61
2022/10/27 11:01:01;;;;;;;;;;;15.70;88.50;;;;;;5069425;28;20037;-62
2022/10/27 11:03:32;;;;;;;2.78;1.40;;;15.70;88.30;;;;;;5069445;28;20007;-60
2022/10/27 11:06:01;;;;;;;3.65;1.65;;;15.70;88.30;;;;;;5063359;28;20057;-61
2022/10/27 11:08:42;;;;;;;5.82;1.63;;;15.80;88.10;;;;;;5072555;28;20048;-60
2022/10/27 11:11:22;;;;;;;4.72;1.60;;;15.80;88.00;;;;;;5071067;28;20119;-60
2022/10/27 11:13:51;;;;;;;;;;;15.80;88.00;;;;;;5070631;28;20036;-60
2022/10/27 11:16:19;;;;;;;4.28;1.80;;;15.80;88.10;;;;;;5072976;28;19921;-61
2022/10/27 11:18:52;;;;;;;5.72;1.60;;;15.80;88.00;;;;;;5065576;28;20399;-61
2022/10/27 11:21:28;;;;;;;3.88;2.10;;;15.80;87.90;;;;;;5063522;28;20098;-61
2022/10/27 11:23:58;;;;;;;7.20;1.80;;;15.80;87.80;;;;;;5068617;28;20055;-62
2022/10/27 11:26:31;;;;;;;3.78;1.90;;;15.90;87.70;;;;;;5071625;28;20049;-61
2022/10/27 11:29:04;;;;;;;3.15;1.85;;;15.90;87.70;;;;;;5068751;28;20045;-61
2022/10/27 11:31:37;;;;;;;4.78;2.05;;;15.90;87.90;;;;;;5070114;28;20405;-61
2022/10/27 11:34:16;;;;;;;5.80;1.80;;;15.90;87.90;;;;;;5070742;28;20463;-61
2022/10/27 11:36:49;;;;;;;5.53;2.15;;;16.00;87.70;;;;;;5057419;28;20041;-60
2022/10/27 11:39:24;;;;;;;4.78;1.67;;;15.90;87.80;;;;;;5068938;28;20057;-60
2022/10/27 11:41:58;;;;;;;4.13;1.80;;;16.00;87.90;;;;;;5070508;28;20055;-61
2022/10/27 11:44:35;;;;;;;3.15;1.70;;;15.90;87.90;;;;;;5066165;28;20123;-61
2022/10/27 11:47:10;;;;;;;4.55;2.03;;;15.90;88.00;;;;;;5064714;28;20032;-61
2022/10/27 11:49:44;;;;;;;6.95;2.17;;;15.90;88.20;;;;;;5067114;28;20076;-61
2022/10/27 11:52:18;;;;;;;4.65;1.77;;;16.00;88.10;;;;;;5072430;28;20498;-61
2022/10/27 11:54:47;;;;;;;4.90;2.15;;;16.00;88.00;;;;;;5072447;28;20143;-60
2022/10/27 11:57:25;;;;;;;3.83;1.85;;;16.00;87.80;;;;;;5062005;28;20037;-60
2022/10/27 12:00:06;;;;;;;5.28;1.80;;;16.00;87.90;;;;;;5072140;28;20052;-60
2022/10/27 12:03:14;;;;;;;5.03;2.25;;;16.00;87.80;;;;;;5066098;28;20072;-61
2022/10/27 12:05:47;;;;;;;3.70;2.00;;;16.10;87.70;;;;;;5063584;28;20072;-59
2022/10/27 12:08:27;;;;;;;4.10;2.15;;;16.10;87.80;;;;;;5069559;28;20123;-61
2022/10/27 12:11:07;;;;;;;5.00;2.15;;;16.00;87.80;;;;;;5060029;28;20045;-62
2022/10/27 12:13:41;;;;;;;5.95;2.40;;;16.00;87.80;;;;;;5068186;28;20071;-61
2022/10/27 12:16:15;;;;;;;3.85;2.50;;;16.10;87.70;;;;;;5062591;28;20132;-61
2022/10/27 12:18:49;;;;;;;4.47;2.33;;;16.10;87.90;;;;;;5065785;28;20041;-61
2022/10/27 12:21:23;;;;;;;5.00;2.58;;;16.00;87.80;;;;;;5069598;28;20049;-61
2022/10/27 12:23:59;;;;;;;5.43;2.53;;;16.10;87.80;;;;;;5071145;28;20044;-61
2022/10/27 12:26:33;;;;;;;7.28;2.50;;;16.10;87.70;;;;;;5067671;28;20045;-60
2022/10/27 12:29:02;;;;;;;3.60;2.33;;;16.00;87.80;;;;;;5061882;28;20040;-61
2022/10/27 12:31:32;;;;;;;5.38;2.78;;;16.00;87.70;;;;;;5061281;28;20084;-62
2022/10/27 12:34:01;;;;;;;7.70;2.83;;;16.10;87.70;;;;;;5067686;28;20048;-61
2022/10/27 12:36:35;;;;;;;5.05;2.75;;;16.10;87.60;;;;;;5070379;28;20127;-61
2022/10/27 12:39:10;;;;;;;6.30;2.80;;;16.10;87.60;;;;;;5067500;28;20045;-62
2022/10/27 12:41:46;;;;;;;8.32;3.10;;;16.10;87.50;;;;;;5062579;28;20048;-62
2022/10/27 12:44:23;;;;;;;5.65;2.65;;;16.00;87.70;;;;;;5070615;28;20049;-61
2022/10/27 12:47:07;;;;;;;5.80;2.90;;;16.00;87.80;;;;;;5071565;28;20047;-60
2022/10/27 12:49:44;;;;;;;5.97;2.70;;;16.00;87.70;;;;;;5069238;28;20398;-61
2022/10/27 12:52:17;;;;;;;9.80;3.17;;;16.10;87.70;;;;;;5071435;28;20144;-61
2022/10/27 12:55:15;;;;;;;6.50;2.95;;;16.00;87.80;;;;;;5081222;28;20040;-61
2022/10/27 12:57:51;;;;;;;7.03;3.33;;;16.00;87.80;;;;;;5057615;28;20076;-62
2022/10/27 13:00:20;;;;;;;6.20;2.97;;;16.00;87.80;;;;;;5063873;28;20521;-60
2022/10/27 13:03:08;;;;;;;5.95;3.17;;;16.00;87.80;;;;;;5061742;28;20132;-62
2022/10/27 13:06:05;;;;;;;5.80;3.35;;;16.10;87.70;;;;;;5066793;28;20102;-61